Time;durP1;ratioP1;P1;durP2;ratioP2;P2;SDS_P1;SDS_P2;PMS_P1;PMS_P2;Temp;Humidity;BMP_temperature;BMP_pressure;BME280_temperature;BME280_humidity;BME280_pressure;Samples;Min_cycle;Max_cycle;Signal;HPM_P1;HPM_P2
2023/11/15 00:02:34;;;;;;;4.97;3.07;;;11.80;99.90;;;;;;5118839;28;20484;-90
2023/11/15 00:05:21;;;;;;;5.70;2.40;;;11.80;99.90;;;;;;5105253;28;20454;-87
2023/11/15 00:08:05;;;;;;;4.17;3.07;;;11.80;99.90;;;;;;5109475;28;20451;-87
2023/11/15 00:10:48;;;;;;;5.90;2.73;;;11.80;99.90;;;;;;5088479;28;21022;-86
2023/11/15 00:13:30;;;;;;;4.90;2.10;;;11.90;99.90;;;;;;5115695;28;20525;-88
2023/11/15 00:16:01;;;;;;;5.63;2.67;;;11.90;99.90;;;;;;5096360;28;20470;-87
2023/11/15 00:19:07;;;;;;;5.43;2.90;;;11.80;99.90;;;;;;5097951;28;20453;-88
2023/11/15 00:21:56;;;;;;;6.90;2.80;;;11.80;99.90;;;;;;5112467;28;20450;-87
2023/11/15 00:24:39;;;;;;;5.27;2.40;;;11.80;99.90;;;;;;5116266;28;20450;-87
2023/11/15 00:27:11;;;;;;;4.63;2.53;;;11.80;99.90;;;;;;5112930;28;20452;-87
2023/11/15 00:29:50;;;;;;;6.17;2.63;;;11.90;99.90;;;;;;5118090;28;20453;-89
2023/11/15 00:32:44;;;;;;;8.27;2.80;;;11.90;99.90;;;;;;5113971;28;20453;-88
2023/11/15 00:41:28;;;;;;;5.40;2.43;;;11.90;99.90;;;;;;5104486;28;20452;-87
2023/11/15 00:44:10;;;;;;;4.93;2.73;;;11.90;99.90;;;;;;5090706;27;20488;-87
2023/11/15 00:46:57;;;;;;;6.77;2.57;;;11.90;99.90;;;;;;5121270;27;20463;-86
2023/11/15 00:49:43;;;;;;;5.37;2.73;;;11.90;99.90;;;;;;5087222;28;20437;-87
2023/11/15 00:52:31;;;;;;;5.97;2.73;;;11.90;99.90;;;;;;5090895;28;20430;-88
2023/11/15 00:55:12;;;;;;;7.57;2.70;;;11.90;99.90;;;;;;5116311;28;20446;-89
2023/11/15 00:57:53;;;;;;;8.13;3.17;;;11.90;99.90;;;;;;5098027;28;20823;-88
2023/11/15 01:00:39;;;;;;;7.53;3.30;;;11.90;99.90;;;;;;5086037;28;20472;-88
2023/11/15 01:03:25;;;;;;;;;;;;;;;;;;;;;
2023/11/15 01:06:18;;;;;;;6.47;3.50;;;11.90;99.90;;;;;;5081241;28;20467;-88
2023/11/15 01:09:03;;;;;;;5.30;2.03;;;11.90;99.90;;;;;;5104606;28;20454;-87
2023/11/15 01:11:57;;;;;;;9.27;2.90;;;11.90;99.90;;;;;;5102314;28;20438;-86
2023/11/15 01:14:33;;;;;;;7.40;2.20;;;11.90;99.90;;;;;;5093379;28;20507;-86
2023/11/15 01:17:21;;;;;;;4.37;2.07;;;11.90;99.90;;;;;;5089291;28;20971;-86
2023/11/15 01:20:14;;;;;;;4.43;2.93;;;12.00;99.90;;;;;;5118449;28;20473;-87
2023/11/15 01:22:55;;;;;;;2.80;2.10;;;11.90;99.90;;;;;;5042195;28;20540;-86
2023/11/15 01:25:30;;;;;;;6.87;2.23;;;11.90;99.90;;;;;;5047052;28;20483;-87
2023/11/15 01:28:05;;;;;;;6.17;2.27;;;11.90;99.90;;;;;;5037171;28;20520;-87
2023/11/15 01:31:00;;;;;;;6.07;2.13;;;11.90;99.90;;;;;;5034996;28;20449;-87
2023/11/15 01:33:47;;;;;;;5.60;3.00;;;12.00;99.90;;;;;;5036420;28;20920;-87
2023/11/15 01:36:28;;;;;;;3.90;2.60;;;12.00;99.90;;;;;;5053304;28;20500;-87
2023/11/15 01:39:20;;;;;;;5.37;2.70;;;12.00;99.90;;;;;;5031737;28;20512;-88
2023/11/15 01:42:21;;;;;;;3.77;2.50;;;12.00;99.90;;;;;;4958640;29;20452;-88
2023/11/15 01:45:17;;;;;;;8.60;3.20;;;12.00;99.90;;;;;;4944720;28;20450;-90
2023/11/15 01:48:32;;;;;;;8.00;3.40;;;12.00;99.90;;;;;;4929474;28;20420;-86
2023/11/15 01:51:26;;;;;;;7.10;2.43;;;12.00;99.90;;;;;;4949601;29;20496;-86
2023/11/15 01:54:15;;;;;;;4.53;2.53;;;12.00;99.90;;;;;;4950378;29;20469;-87
2023/11/15 02:00:42;;;;;;;;;;;;;;;;;;;;;
2023/11/15 02:03:40;;;;;;;11.97;2.80;;;12.00;99.90;;;;;;5005640;28;20465;-86
2023/11/15 02:06:37;;;;;;;4.17;2.80;;;12.00;99.90;;;;;;4968079;28;20458;-85
2023/11/15 02:09:22;;;;;;;4.90;2.53;;;12.00;99.90;;;;;;4964243;28;20461;-88
2023/11/15 02:16:12;;;;;;;8.67;2.80;;;12.00;99.90;;;;;;4957043;28;20481;-86
2023/11/15 02:19:08;;;;;;;5.70;2.10;;;12.00;99.90;;;;;;4977217;28;20531;-87
2023/11/15 02:22:09;;;;;;;5.33;2.43;;;12.10;99.90;;;;;;5044434;28;20438;-88
2023/11/15 02:25:14;;;;;;;;;;;;;;;;;;;;;
2023/11/15 02:28:05;;;;;;;5.87;2.57;;;12.10;99.90;;;;;;5076243;28;20478;-88
2023/11/15 02:30:42;;;;;;;9.03;2.47;;;12.10;99.90;;;;;;5072132;28;20471;-88
2023/11/15 02:33:22;;;;;;;4.60;2.57;;;12.10;99.90;;;;;;5049156;28;20459;-88
2023/11/15 02:36:07;;;;;;;7.80;3.50;;;12.10;99.90;;;;;;5062079;28;20464;-86
2023/11/15 02:39:22;;;;;;;3.73;2.90;;;12.10;99.90;;;;;;5056658;28;20435;-87
2023/11/15 02:42:09;;;;;;;8.57;2.67;;;12.10;99.90;;;;;;5073212;28;20447;-86
2023/11/15 02:45:34;;;;;;;6.87;2.27;;;12.10;99.90;;;;;;5094001;28;20450;-88
2023/11/15 02:48:32;;;;;;;3.03;2.00;;;12.10;99.90;;;;;;5102427;28;20433;-87
2023/11/15 02:51:49;;;;;;;7.47;2.20;;;12.10;99.90;;;;;;5087561;28;20475;-87
2023/11/15 02:54:35;;;;;;;5.60;2.37;;;12.10;99.90;;;;;;5045902;28;20508;-87
2023/11/15 03:00:39;;;;;;;3.93;2.30;;;12.10;99.90;;;;;;5033228;28;20533;-87
2023/11/15 03:07:08;;;;;;;8.03;2.77;;;12.20;99.90;;;;;;5069076;28;20463;-85
2023/11/15 03:09:51;;;;;;;6.43;1.90;;;12.20;99.90;;;;;;5088662;28;20445;-87
2023/11/15 03:12:51;;;;;;;4.83;2.80;;;12.20;99.90;;;;;;5118922;28;20452;-87
2023/11/15 03:18:33;;;;;;;7.40;2.30;;;12.20;99.90;;;;;;5099492;28;20518;-86
2023/11/15 03:21:02;;;;;;;4.70;2.30;;;12.20;99.90;;;;;;5098309;28;20454;-86
2023/11/15 03:24:08;;;;;;;8.87;2.00;;;12.20;99.90;;;;;;5093609;28;20525;-86
2023/11/15 03:26:57;;;;;;;6.37;2.43;;;12.20;99.90;;;;;;5114507;28;20477;-87
2023/11/15 03:29:37;;;;;;;4.80;2.57;;;12.20;99.90;;;;;;5092444;28;20438;-87
2023/11/15 03:35:31;;;;;;;;;;;;;;;;;;;;;
2023/11/15 03:38:11;;;;;;;4.47;2.27;;;12.20;99.90;;;;;;5111965;28;20480;-87
2023/11/15 03:40:56;;;;;;;5.03;2.37;;;12.20;99.90;;;;;;5138341;28;20468;-88
2023/11/15 03:43:43;;;;;;;7.93;2.63;;;12.20;99.90;;;;;;5028162;28;20449;-88
2023/11/15 03:46:16;;;;;;;2.90;1.87;;;12.20;99.90;;;;;;5002692;28;20510;-88
2023/11/15 03:48:58;;;;;;;3.83;1.90;;;12.10;99.90;;;;;;5005240;28;20446;-87
2023/11/15 03:51:49;;;;;;;3.77;1.60;;;12.10;99.90;;;;;;5011225;28;20450;-87
2023/11/15 03:54:34;;;;;;;8.63;2.87;;;12.10;99.90;;;;;;5015873;28;20477;-90
2023/11/15 03:57:14;;;;;;;7.00;2.20;;;12.10;99.90;;;;;;5022404;28;20467;-87
2023/11/15 04:03:51;;;;;;;;;;;;;;;;;;;;;
2023/11/15 04:07:03;;;;;;;7.57;2.03;;;12.10;99.90;;;;;;5015059;28;21038;-86
2023/11/15 04:09:36;;;;;;;8.67;2.43;;;12.10;99.90;;;;;;4991039;28;20486;-85
2023/11/15 04:12:09;;;;;;;2.93;2.40;;;12.10;99.90;;;;;;5003691;28;20453;-86
2023/11/15 04:15:22;;;;;;;7.63;3.27;;;12.10;99.90;;;;;;4988147;28;20540;-87
2023/11/15 04:17:52;;;;;;;7.87;3.00;;;12.00;99.90;;;;;;5011566;28;20850;-86
2023/11/15 04:20:32;;;;;;;8.87;2.40;;;12.00;99.90;;;;;;5032648;28;20464;-86
2023/11/15 04:23:10;;;;;;;6.17;2.27;;;12.00;99.90;;;;;;5087371;28;20441;-87
2023/11/15 04:26:03;;;;;;;10.43;3.03;;;12.00;99.90;;;;;;5095492;28;20946;-87
2023/11/15 04:28:41;;;;;;;6.17;2.10;;;12.10;99.90;;;;;;5114435;28;20483;-88
2023/11/15 04:31:26;;;;;;;8.00;3.13;;;12.10;99.90;;;;;;5098133;28;20517;-88
2023/11/15 04:34:17;;;;;;;5.57;2.07;;;12.00;99.90;;;;;;5095337;28;20482;-86
2023/11/15 04:36:57;;;;;;;9.60;2.27;;;12.10;99.90;;;;;;5101392;28;20466;-87
2023/11/15 04:39:39;;;;;;;7.10;2.20;;;12.10;99.90;;;;;;5103054;28;20458;-87
2023/11/15 04:42:30;;;;;;;9.87;2.67;;;12.10;99.90;;;;;;5099558;28;20447;-85
2023/11/15 04:45:07;;;;;;;8.23;2.60;;;12.10;99.90;;;;;;5114942;28;20529;-88
2023/11/15 04:48:08;;;;;;;4.80;2.27;;;12.10;99.90;;;;;;5110486;28;20475;-88
2023/11/15 04:50:54;;;;;;;6.17;2.97;;;12.10;99.90;;;;;;5094817;28;20446;-88
2023/11/15 04:53:38;;;;;;;3.97;2.40;;;12.00;99.90;;;;;;5090802;28;20486;-87
2023/11/15 04:56:20;;;;;;;3.63;1.87;;;12.00;99.90;;;;;;5103631;28;20458;-86
2023/11/15 04:59:38;;;;;;;7.77;2.20;;;12.10;99.90;;;;;;5100923;28;20406;-87
2023/11/15 05:02:33;;;;;;;9.67;2.23;;;12.00;99.90;;;;;;5049156;28;20498;-86
2023/11/15 05:05:45;;;;;;;5.87;2.20;;;12.00;99.90;;;;;;5041593;28;20808;-87
2023/11/15 05:08:40;;;;;;;5.90;2.70;;;12.00;99.90;;;;;;5028908;28;20512;-88
2023/11/15 05:11:32;;;;;;;6.80;3.17;;;12.00;99.90;;;;;;5055645;28;20466;-88
2023/11/15 05:14:17;;;;;;;10.63;2.57;;;12.00;99.90;;;;;;5035591;28;20472;-88
2023/11/15 05:17:13;;;;;;;;;;;;;;;;;;;;;
2023/11/15 05:20:27;;;;;;;7.97;2.53;;;12.00;99.90;;;;;;5045831;28;20556;-87
2023/11/15 05:23:08;;;;;;;6.97;2.30;;;12.00;99.90;;;;;;5028630;28;20449;-88
2023/11/15 05:25:47;;;;;;;6.13;3.43;;;12.00;99.90;;;;;;5029169;28;20475;-88
2023/11/15 05:28:36;;;;;;;9.80;2.53;;;12.00;99.90;;;;;;5036371;28;20468;-88
2023/11/15 05:31:23;;;;;;;7.43;2.10;;;12.00;99.90;;;;;;5037812;28;20490;-87
2023/11/15 05:34:06;;;;;;;7.17;2.00;;;12.00;99.90;;;;;;5047334;28;20448;-85
2023/11/15 05:36:49;;;;;;;7.30;2.30;;;12.00;99.90;;;;;;5043807;28;20484;-88
2023/11/15 05:39:23;;;;;;;8.47;2.63;;;12.00;99.90;;;;;;5073765;28;20514;-88
2023/11/15 05:42:21;;;;;;;11.53;2.80;;;12.00;99.90;;;;;;5101472;28;20446;-86
2023/11/15 05:45:04;;;;;;;5.73;2.50;;;12.00;99.90;;;;;;4997085;28;20521;-88
2023/11/15 05:48:04;;;;;;;9.03;2.70;;;12.00;99.90;;;;;;4990591;28;20493;-87
2023/11/15 05:50:37;;;;;;;8.67;2.20;;;12.00;99.90;;;;;;4986499;28;20501;-87
2023/11/15 05:53:24;;;;;;;5.00;2.30;;;12.00;99.90;;;;;;4992407;28;20453;-86
2023/11/15 05:56:32;;;;;;;6.80;3.07;;;12.00;99.90;;;;;;5001034;28;20489;-87
2023/11/15 06:02:44;;;;;;;3.90;1.97;;;12.00;99.90;;;;;;4993051;28;20442;-87
2023/11/15 06:05:29;;;;;;;6.20;1.90;;;12.00;99.90;;;;;;4991707;28;20465;-87
2023/11/15 06:08:19;;;;;;;5.30;1.93;;;12.00;99.90;;;;;;5000219;28;20442;-86
2023/11/15 06:11:11;;;;;;;9.07;2.27;;;12.00;99.90;;;;;;4996076;28;20462;-86
2023/11/15 06:13:55;;;;;;;4.30;2.80;;;12.00;99.90;;;;;;4998631;28;20454;-87
2023/11/15 06:16:41;;;;;;;6.83;2.53;;;12.00;99.90;;;;;;4990732;28;20477;-87
2023/11/15 06:19:19;;;;;;;7.23;2.80;;;12.00;99.90;;;;;;5004555;28;20457;-88
2023/11/15 06:21:56;;;;;;;5.33;2.30;;;12.00;99.90;;;;;;5056014;28;20442;-88
2023/11/15 06:25:04;;;;;;;6.33;2.97;;;12.00;99.90;;;;;;5116158;28;20502;-89
2023/11/15 06:27:48;;;;;;;5.93;2.40;;;12.10;99.90;;;;;;5113556;28;20452;-87
2023/11/15 06:30:35;;;;;;;4.80;2.93;;;12.10;99.90;;;;;;5091541;28;20439;-87
2023/11/15 06:33:12;;;;;;;4.07;2.77;;;12.10;99.90;;;;;;5101787;28;20450;-86
2023/11/15 06:36:26;;;;;;;9.10;3.30;;;12.10;99.90;;;;;;5115075;27;20500;-88
2023/11/15 06:39:21;;;;;;;11.30;3.50;;;12.10;99.90;;;;;;5099647;28;20446;-86
2023/11/15 06:45:37;;;;;;;6.40;2.70;;;12.10;99.90;;;;;;5093810;28;20457;-87
2023/11/15 06:48:28;;;;;;;10.90;3.23;;;12.10;99.90;;;;;;5100866;28;20488;-86
2023/11/15 06:51:04;;;;;;;7.33;3.43;;;12.10;99.90;;;;;;5102883;28;20540;-87
2023/11/15 06:54:12;;;;;;;6.30;3.07;;;12.10;99.90;;;;;;5101448;28;20596;-88
2023/11/15 06:57:19;;;;;;;4.77;2.30;;;12.10;99.90;;;;;;5108665;28;20554;-87
2023/11/15 07:06:46;;;;;;;9.10;2.53;;;12.10;99.90;;;;;;5028711;28;20465;-87
2023/11/15 07:13:05;;;;;;;5.50;2.40;;;12.20;99.90;;;;;;5013556;28;20534;-87
2023/11/15 07:16:21;;;;;;;5.67;3.20;;;12.20;99.90;;;;;;5001332;28;20478;-87
2023/11/15 07:19:01;;;;;;;9.47;3.40;;;12.20;99.90;;;;;;4994159;28;20450;-87
2023/11/15 07:29:21;;;;;;;7.97;2.40;;;12.20;99.90;;;;;;5020378;28;20465;-86
2023/11/15 07:32:27;;;;;;;6.60;2.43;;;12.20;99.90;;;;;;5035929;28;20460;-86
2023/11/15 07:35:14;;;;;;;10.50;2.60;;;12.20;99.90;;;;;;5035209;28;20529;-90
2023/11/15 07:37:59;;;;;;;7.63;3.30;;;12.20;99.90;;;;;;5018966;28;20551;-88
2023/11/15 07:40:52;;;;;;;6.80;3.13;;;12.20;99.90;;;;;;5012185;28;20442;-87
2023/11/15 07:43:37;;;;;;;5.80;2.47;;;12.20;99.90;;;;;;5043353;28;20527;-87
2023/11/15 07:46:46;;;;;;;9.87;3.13;;;12.30;99.90;;;;;;5086562;28;20508;-87
2023/11/15 07:49:23;;;;;;;7.47;2.60;;;12.20;99.90;;;;;;5112456;28;20458;-85
2023/11/15 07:52:27;;;;;;;9.37;3.30;;;12.20;99.90;;;;;;5098762;28;20441;-87
2023/11/15 07:55:40;;;;;;;8.27;2.87;;;12.20;99.90;;;;;;5099338;28;20485;-87
2023/11/15 07:58:27;;;;;;;9.03;2.80;;;12.30;99.90;;;;;;5093951;28;20451;-88
2023/11/15 08:01:40;;;;;;;2.67;2.10;;;12.30;99.90;;;;;;5072869;28;20850;-87
2023/11/15 08:04:21;;;;;;;4.27;2.70;;;12.30;99.90;;;;;;5091066;28;20541;-85
2023/11/15 08:07:02;;;;;;;8.17;2.80;;;12.30;99.90;;;;;;5086760;28;20482;-87
2023/11/15 08:10:16;;;;;;;8.40;3.13;;;12.40;99.90;;;;;;5102157;28;20434;-88
2023/11/15 08:12:45;;;;;;;5.43;2.63;;;12.40;99.90;;;;;;5095424;28;20438;-86
2023/11/15 08:15:47;;;;;;;5.47;2.70;;;12.40;99.90;;;;;;5104678;28;20481;-87
2023/11/15 08:18:31;;;;;;;6.70;2.60;;;12.40;99.90;;;;;;5096485;28;20445;-88
2023/11/15 08:20:58;;;;;;;8.70;2.80;;;12.50;99.90;;;;;;5100001;28;20445;-88
2023/11/15 08:24:00;;;;;;;4.30;2.40;;;12.50;99.90;;;;;;5087007;28;20457;-87
2023/11/15 08:26:30;;;;;;;5.83;2.27;;;12.60;99.90;;;;;;5113063;28;20466;-86
2023/11/15 08:29:16;;;;;;;5.77;2.70;;;12.60;99.90;;;;;;5122657;28;20468;-86
2023/11/15 08:31:53;;;;;;;8.07;2.77;;;12.60;99.90;;;;;;5090756;28;20439;-86
2023/11/15 08:34:26;;;;;;;5.00;2.10;;;12.60;99.90;;;;;;5109522;28;20469;-87
2023/11/15 08:37:04;;;;;;;8.00;3.00;;;12.70;99.90;;;;;;5097505;28;20458;-88
2023/11/15 08:40:24;;;;;;;8.70;2.53;;;12.80;99.90;;;;;;5081588;28;20426;-87
2023/11/15 08:43:00;;;;;;;6.30;2.63;;;12.80;99.90;;;;;;5100163;28;20474;-86
2023/11/15 08:46:20;;;;;;;9.40;2.57;;;12.90;99.90;;;;;;5089421;28;20476;-87
2023/11/15 08:49:03;;;;;;;10.80;2.90;;;12.80;99.90;;;;;;5097160;28;20459;-87
2023/11/15 08:51:52;;;;;;;6.73;2.50;;;12.70;99.90;;;;;;5098095;28;20819;-87
2023/11/15 08:54:45;;;;;;;7.13;2.40;;;12.70;99.90;;;;;;5103165;28;20466;-88
2023/11/15 08:57:17;;;;;;;7.33;2.70;;;12.70;99.90;;;;;;5105355;28;20470;-87
2023/11/15 09:00:31;;;;;;;7.13;2.03;;;12.80;99.90;;;;;;5086605;28;20453;-87
2023/11/15 09:03:09;;;;;;;7.60;2.60;;;12.70;99.90;;;;;;5107044;28;20438;-85
2023/11/15 09:06:25;;;;;;;5.40;1.80;;;12.80;99.90;;;;;;5095503;28;20869;-86
2023/11/15 09:09:15;;;;;;;7.87;2.10;;;12.90;99.90;;;;;;5112772;28;20492;-86
2023/11/15 09:12:27;;;;;;;6.50;2.20;;;12.90;99.90;;;;;;5076775;28;21042;-86
2023/11/15 09:15:20;;;;;;;6.00;1.97;;;13.00;99.90;;;;;;5089446;28;20481;-86
2023/11/15 09:18:20;;;;;;;;;;;;;;;;;;;;;
2023/11/15 09:21:15;;;;;;;3.80;1.90;;;13.10;99.90;;;;;;5078554;28;20512;-86
2023/11/15 09:24:01;;;;;;;4.90;2.40;;;13.10;99.90;;;;;;5061693;28;20436;-86
2023/11/15 09:27:06;;;;;;;3.70;1.97;;;13.10;99.90;;;;;;5048590;28;20461;-87
2023/11/15 09:29:52;;;;;;;9.07;2.07;;;13.30;99.90;;;;;;5020135;28;20476;-88
2023/11/15 09:32:33;;;;;;;7.30;2.67;;;13.40;99.90;;;;;;5034302;28;20514;-87
2023/11/15 09:35:39;;;;;;;4.70;2.07;;;13.70;99.90;;;;;;5021044;28;20556;-86
2023/11/15 09:38:33;;;;;;;;;;;;;;;;;;;;;
2023/11/15 09:41:29;;;;;;;4.23;2.00;;;14.50;99.80;;;;;;5060821;28;20455;-87
2023/11/15 09:44:18;;;;;;;4.03;2.50;;;15.00;99.90;;;;;;5047420;28;20432;-88
2023/11/15 09:47:14;;;;;;;5.87;1.53;;;15.80;98.50;;;;;;5033701;28;20475;-87
2023/11/15 09:50:04;;;;;;;6.27;1.87;;;15.70;96.20;;;;;;5041178;28;20509;-86
2023/11/15 09:53:08;;;;;;;6.03;2.47;;;15.90;96.80;;;;;;5034683;28;20457;-87
2023/11/15 09:55:51;;;;;;;7.43;2.33;;;16.10;95.70;;;;;;5043849;28;20503;-87
2023/11/15 09:58:32;;;;;;;6.77;1.57;;;15.80;95.40;;;;;;5043817;28;20444;-87
2023/11/15 10:01:12;;;;;;;7.57;1.63;;;15.40;95.50;;;;;;5041347;28;20445;-92
2023/11/15 10:04:06;;;;;;;7.07;1.77;;;15.10;95.70;;;;;;5054290;28;20516;-89
2023/11/15 10:06:45;;;;;;;5.47;2.40;;;14.90;96.00;;;;;;5055778;28;20469;-91
2023/11/15 10:09:33;;;;;;;6.30;2.47;;;14.70;96.30;;;;;;5058707;28;20452;-87
2023/11/15 10:12:18;;;;;;;4.17;1.30;;;14.70;96.40;;;;;;5055382;28;20453;-88
2023/11/15 10:15:01;;;;;;;4.90;1.90;;;14.70;96.50;;;;;;5044898;28;20441;-86
2023/11/15 10:17:48;;;;;;;5.70;2.13;;;14.60;96.40;;;;;;5051382;28;20572;-87
2023/11/15 10:20:25;;;;;;;3.23;1.77;;;14.60;96.40;;;;;;5058416;28;20440;-88
2023/11/15 10:23:24;;;;;;;3.20;1.70;;;14.50;96.40;;;;;;5058685;28;20436;-90
2023/11/15 10:26:16;;;;;;;9.80;3.40;;;14.40;96.40;;;;;;5044168;28;20478;-88
2023/11/15 10:29:12;;;;;;;4.10;2.10;;;14.50;96.60;;;;;;5047143;28;20532;-87
2023/11/15 10:31:51;;;;;;;3.77;1.83;;;14.50;96.50;;;;;;5039294;28;20548;-87
2023/11/15 10:34:55;;;;;;;5.33;1.50;;;14.50;96.40;;;;;;5016711;28;20472;-87
2023/11/15 10:37:32;;;;;;;4.93;2.20;;;14.50;96.40;;;;;;5033752;28;20475;-87
2023/11/15 10:40:12;;;;;;;4.60;1.67;;;14.40;96.60;;;;;;5038466;28;20460;-87
2023/11/15 10:46:12;;;;;;;3.40;2.00;;;14.30;96.90;;;;;;5041183;28;21132;-87
2023/11/15 10:48:51;;;;;;;3.00;1.77;;;14.20;96.80;;;;;;5045079;28;20433;-86
2023/11/15 10:52:08;;;;;;;7.53;2.13;;;14.20;97.00;;;;;;5060888;28;20432;-87
2023/11/15 10:55:12;;;;;;;3.67;1.97;;;14.20;96.70;;;;;;5055399;28;20448;-88
2023/11/15 10:58:02;;;;;;;2.80;1.83;;;14.20;96.70;;;;;;5056657;28;20481;-88
2023/11/15 11:01:06;;;;;;;4.00;2.00;;;14.20;96.80;;;;;;5047164;28;20437;-88
2023/11/15 11:03:58;;;;;;;4.23;1.90;;;14.20;97.00;;;;;;5039516;28;20472;-85
2023/11/15 11:07:06;;;;;;;;;;;;;;;;;;;;;
2023/11/15 11:10:25;;;;;;;5.43;2.50;;;14.30;97.30;;;;;;5056872;28;20506;-87
2023/11/15 11:13:44;;;;;;;5.90;2.20;;;14.30;97.00;;;;;;5054876;28;20463;-87
2023/11/15 11:16:45;;;;;;;3.70;1.60;;;14.20;96.90;;;;;;5029243;28;20929;-86
2023/11/15 11:19:34;;;;;;;3.57;2.00;;;14.20;97.00;;;;;;5036072;28;20457;-86
2023/11/15 11:22:11;;;;;;;5.73;1.80;;;14.10;97.10;;;;;;5049063;28;20449;-85
2023/11/15 11:25:07;;;;;;;7.40;2.07;;;14.10;97.20;;;;;;5055341;28;20578;-88
2023/11/15 11:28:16;;;;;;;6.83;1.67;;;14.00;97.30;;;;;;5057920;28;20492;-88
2023/11/15 11:31:22;;;;;;;6.77;2.40;;;14.00;97.30;;;;;;5043819;28;20436;-88
2023/11/15 11:34:18;;;;;;;3.73;1.77;;;14.00;97.50;;;;;;5072277;28;20452;-87
2023/11/15 11:37:14;;;;;;;3.37;1.90;;;14.00;97.50;;;;;;5060490;28;20535;-89
2023/11/15 11:39:55;;;;;;;6.13;1.97;;;14.10;97.30;;;;;;5051289;28;20472;-88
2023/11/15 11:42:43;;;;;;;6.13;2.47;;;14.00;97.40;;;;;;5039835;28;20516;-87
2023/11/15 11:45:52;;;;;;;3.90;1.80;;;14.00;97.40;;;;;;5039991;28;20483;-86
2023/11/15 11:48:30;;;;;;;7.03;3.00;;;14.00;97.40;;;;;;5044341;28;20513;-86
2023/11/15 11:51:18;;;;;;;7.40;1.70;;;13.90;96.80;;;;;;5050367;28;20449;-86
2023/11/15 11:54:27;;;;;;;2.27;1.73;;;13.80;96.70;;;;;;5034491;28;20524;-88
2023/11/15 11:57:11;;;;;;;4.93;2.00;;;13.90;96.90;;;;;;5035460;28;20481;-87
2023/11/15 12:03:44;;;;;;;3.50;1.87;;;14.00;96.70;;;;;;5057777;28;20462;-87
2023/11/15 12:06:45;;;;;;;3.17;1.57;;;14.10;96.40;;;;;;4984616;28;20467;-87
2023/11/15 12:09:42;;;;;;;8.23;2.33;;;14.20;96.50;;;;;;5041870;28;20464;-87
2023/11/15 12:12:18;;;;;;;6.53;2.00;;;14.20;96.70;;;;;;5025991;28;20515;-88
2023/11/15 12:15:16;;;;;;;4.40;1.80;;;14.30;96.50;;;;;;5029238;28;20945;-87
2023/11/15 12:17:56;;;;;;;5.43;2.07;;;14.40;96.40;;;;;;5037942;28;20477;-88
2023/11/15 12:20:39;;;;;;;5.37;2.20;;;14.80;96.20;;;;;;5022547;28;20440;-87
2023/11/15 12:23:31;;;;;;;3.90;2.20;;;14.80;95.70;;;;;;5061419;28;20444;-88
2023/11/15 12:26:23;;;;;;;6.37;2.50;;;14.70;95.70;;;;;;5027707;28;20993;-87
2023/11/15 12:29:35;;;;;;;8.40;2.40;;;15.20;95.90;;;;;;5054846;28;20441;-87
2023/11/15 12:32:25;;;;;;;5.30;1.63;;;15.00;95.70;;;;;;5044725;28;20425;-87
2023/11/15 12:35:07;;;;;;;2.53;1.60;;;14.70;96.00;;;;;;5056465;28;20992;-88
2023/11/15 12:37:45;;;;;;;3.10;1.70;;;14.80;96.40;;;;;;5026802;28;20465;-87
2023/11/15 12:40:34;;;;;;;7.47;1.60;;;14.70;96.50;;;;;;5043668;28;20455;-86
2023/11/15 12:43:30;;;;;;;2.40;1.87;;;14.80;96.90;;;;;;5033975;28;20541;-88
2023/11/15 12:45:59;;;;;;;6.63;2.23;;;14.80;96.80;;;;;;5038614;28;20485;-87
2023/11/15 12:48:55;;;;;;;6.40;1.70;;;14.90;96.40;;;;;;5037537;28;20440;-87
2023/11/15 12:51:44;;;;;;;5.30;2.53;;;14.80;96.00;;;;;;5019258;28;20456;-86
2023/11/15 12:54:15;;;;;;;5.47;1.47;;;14.80;96.10;;;;;;5038130;28;20889;-88
2023/11/15 12:59:57;;;;;;;5.80;2.00;;;14.70;96.80;;;;;;5054637;23;20483;-88
2023/11/15 13:02:57;;;;;;;6.07;2.03;;;14.50;97.40;;;;;;4987157;28;20571;-87
2023/11/15 13:05:45;;;;;;;5.47;1.80;;;14.40;97.60;;;;;;4992681;28;20581;-87
2023/11/15 13:08:15;;;;;;;4.47;2.30;;;14.60;98.00;;;;;;4982097;28;20450;-88
2023/11/15 13:10:49;;;;;;;2.37;1.30;;;14.70;97.60;;;;;;4981324;28;20455;-86
2023/11/15 13:13:37;;;;;;;2.80;1.50;;;14.80;97.30;;;;;;4978003;28;20512;-86
2023/11/15 13:16:24;;;;;;;2.90;1.50;;;14.80;96.80;;;;;;4977313;28;20511;-86
2023/11/15 13:19:06;;;;;;;4.80;2.07;;;14.70;96.30;;;;;;4964924;28;20524;-89
2023/11/15 13:21:50;;;;;;;2.37;1.50;;;14.70;96.10;;;;;;4974861;28;20428;-86
2023/11/15 13:24:33;;;;;;;3.80;1.50;;;14.60;95.20;;;;;;4979940;28;20450;-87
2023/11/15 13:27:39;;;;;;;;;;;;;;;;;;;;;
2023/11/15 13:30:45;;;;;;;4.30;1.57;;;14.30;94.90;;;;;;4975694;28;20470;-86
2023/11/15 13:33:25;;;;;;;3.67;1.43;;;14.30;94.90;;;;;;4964143;29;20528;-87
2023/11/15 13:35:56;;;;;;;4.20;0.97;;;14.20;95.10;;;;;;4984248;28;20485;-87
2023/11/15 13:38:36;;;;;;;3.73;1.03;;;14.20;95.40;;;;;;4986164;28;20456;-86
2023/11/15 13:41:27;;;;;;;6.97;1.93;;;14.20;95.50;;;;;;4983756;28;20479;-86
2023/11/15 13:43:56;;;;;;;2.00;1.57;;;14.10;95.50;;;;;;4978765;28;20483;-87
2023/11/15 13:46:39;;;;;;;3.90;2.37;;;14.10;95.80;;;;;;4983350;28;20468;-87
2023/11/15 13:49:12;;;;;;;6.20;1.63;;;14.00;95.70;;;;;;4991187;28;20460;-86
2023/11/15 13:52:13;;;;;;;2.47;1.30;;;14.00;95.70;;;;;;4976352;28;20526;-86
2023/11/15 13:54:56;;;;;;;4.60;1.50;;;14.00;96.00;;;;;;4972128;28;20449;-86
2023/11/15 13:57:33;;;;;;;5.90;1.37;;;14.00;96.00;;;;;;4970708;28;20488;-85
2023/11/15 14:00:33;;;;;;;3.53;1.57;;;13.90;96.00;;;;;;4970814;28;20479;-86
2023/11/15 14:03:26;;;;;;;5.80;1.87;;;13.80;96.10;;;;;;4980775;28;20487;-86
2023/11/15 14:06:14;;;;;;;3.63;1.50;;;13.80;96.40;;;;;;4959686;28;20476;-87
2023/11/15 14:09:17;;;;;;;6.70;2.73;;;13.90;96.60;;;;;;4984493;28;20511;-86
2023/11/15 14:11:57;;;;;;;4.03;1.47;;;13.80;96.60;;;;;;4976047;28;20456;-88
2023/11/15 14:14:27;;;;;;;4.30;1.20;;;13.80;96.40;;;;;;4970623;28;20480;-86
2023/11/15 14:17:09;;;;;;;2.23;1.30;;;13.80;96.20;;;;;;4984846;28;20483;-86
2023/11/15 14:20:06;;;;;;;3.97;1.80;;;13.70;96.30;;;;;;4979652;28;20435;-85
2023/11/15 14:22:55;;;;;;;4.00;3.20;;;13.70;96.50;;;;;;4973314;28;20440;-87
2023/11/15 14:25:33;;;;;;;6.17;3.60;;;13.70;96.70;;;;;;4985582;28;20463;-86
2023/11/15 14:28:17;;;;;;;3.47;1.83;;;13.70;96.90;;;;;;4991665;28;20488;-86
2023/11/15 14:30:48;;;;;;;5.67;1.87;;;13.60;96.90;;;;;;4979776;28;21020;-86
2023/11/15 14:33:33;;;;;;;4.03;1.40;;;13.60;97.00;;;;;;4972749;28;20534;-88
2023/11/15 14:36:12;;;;;;;2.30;1.57;;;13.60;97.30;;;;;;4976688;28;20495;-88
2023/11/15 14:38:55;;;;;;;2.57;1.40;;;13.60;97.30;;;;;;4966879;28;20461;-87
2023/11/15 14:41:33;;;;;;;3.27;1.07;;;13.60;97.30;;;;;;4970616;28;20483;-86
2023/11/15 14:44:07;;;;;;;5.60;2.00;;;13.60;97.40;;;;;;4967331;28;20444;-87
2023/11/15 14:46:44;;;;;;;5.20;2.00;;;13.80;97.30;;;;;;4986044;28;20511;-86
2023/11/15 14:49:28;;;;;;;4.20;1.40;;;13.70;97.10;;;;;;4984140;28;20502;-86
2023/11/15 14:52:12;;;;;;;2.50;1.40;;;13.60;97.00;;;;;;4985906;28;20456;-87
2023/11/15 14:54:46;;;;;;;2.70;1.33;;;13.50;97.00;;;;;;4983134;28;20464;-86
2023/11/15 14:57:20;;;;;;;2.57;1.07;;;13.40;97.20;;;;;;4979195;28;20479;-87
2023/11/15 14:59:55;;;;;;;3.77;1.60;;;13.40;97.20;;;;;;5001761;28;20448;-86
2023/11/15 15:02:27;;;;;;;1.90;1.53;;;13.50;97.20;;;;;;4967823;28;20480;-86
2023/11/15 15:05:05;;;;;;;3.30;1.47;;;13.50;97.20;;;;;;4983941;28;20484;-86
2023/11/15 15:08:15;;;;;;;4.17;1.60;;;13.40;97.20;;;;;;4978682;28;20459;-84
2023/11/15 15:10:58;;;;;;;3.93;1.20;;;13.50;97.20;;;;;;4979221;28;20435;-89
2023/11/15 15:13:26;;;;;;;3.53;1.70;;;13.70;96.80;;;;;;4956194;29;20437;-86
2023/11/15 15:16:15;;;;;;;3.43;1.30;;;13.60;96.90;;;;;;4981768;28;20443;-85
2023/11/15 15:19:01;;;;;;;2.70;1.37;;;13.50;97.10;;;;;;4982414;28;20445;-85
2023/11/15 15:24:19;;;;;;;4.63;1.33;;;13.40;97.30;;;;;;4985606;23;20487;-90
2023/11/15 15:27:11;;;;;;;5.63;1.47;;;13.40;97.40;;;;;;4973636;28;20533;-89
2023/11/15 15:30:00;;;;;;;1.40;1.30;;;13.30;97.40;;;;;;4973166;28;20458;-87
2023/11/15 15:32:44;;;;;;;6.63;1.83;;;13.30;97.50;;;;;;4952346;28;20529;-89
2023/11/15 15:35:27;;;;;;;4.60;2.60;;;13.60;97.30;;;;;;4959955;28;20450;-88
2023/11/15 15:38:21;;;;;;;4.37;1.50;;;13.40;97.10;;;;;;4956478;28;20491;-88
2023/11/15 15:41:35;;;;;;;3.70;1.83;;;13.40;97.30;;;;;;4940746;29;20458;-87
2023/11/15 15:47:05;;;;;;;5.60;1.97;;;13.30;97.40;;;;;;4953767;26;20484;-85
2023/11/15 15:53:26;;;;;;;4.43;1.50;;;13.30;97.50;;;;;;4963354;28;20451;-88
2023/11/15 15:56:44;;;;;;;3.20;1.40;;;13.30;97.40;;;;;;4953809;28;20548;-86
2023/11/15 15:59:34;;;;;;;2.93;1.50;;;13.30;97.50;;;;;;4928577;29;20467;-87
2023/11/15 16:02:52;;;;;;;7.83;2.23;;;13.30;97.10;;;;;;4942547;29;20450;-86
2023/11/15 16:05:41;;;;;;;4.60;2.30;;;13.30;97.10;;;;;;5095033;23;20496;-86
2023/11/15 16:08:18;;;;;;;5.10;1.60;;;13.30;97.20;;;;;;4973045;28;20441;-88